createdAt,value
2022-10-10T00:01:43.122Z,22.87
2022-10-10T00:04:11.356Z,22.83
2022-10-10T00:06:39.306Z,22.95
2022-10-10T00:09:07.836Z,22.78
2022-10-10T00:11:36.376Z,22.93
2022-10-10T00:14:05.716Z,22.56
2022-10-10T00:16:34.151Z,22.82
2022-10-10T00:19:02.246Z,22.86
2022-10-10T00:21:31.218Z,22.64
2022-10-10T00:24:00.906Z,22.74
2022-10-10T00:26:28.858Z,22.86
2022-10-10T00:28:57.037Z,22.68
2022-10-10T00:31:25.237Z,22.77
2022-10-10T00:33:53.357Z,22.81
2022-10-10T00:36:21.690Z,22.79
2022-10-10T00:38:49.675Z,22.70
2022-10-10T00:41:18.116Z,22.77
2022-10-10T00:44:05.327Z,22.71
2022-10-10T00:46:33.397Z,22.82
2022-10-10T00:49:04.057Z,22.83
2022-10-10T00:51:32.767Z,22.78
2022-10-10T00:54:06.175Z,22.58
2022-10-10T00:56:45.037Z,22.59
2022-10-10T00:59:14.810Z,22.62
2022-10-10T01:01:43.318Z,22.66
2022-10-10T01:04:31.091Z,22.59
2022-10-10T01:07:00.644Z,22.70
2022-10-10T01:09:29.460Z,22.71
2022-10-10T01:12:17.566Z,22.66
2022-10-10T01:15:07.717Z,22.57
2022-10-10T01:17:45.996Z,22.61
2022-10-10T01:20:56.320Z,22.69
2022-10-10T01:23:30.095Z,22.72
2022-10-10T01:26:16.110Z,22.71
2022-10-10T01:28:59.606Z,22.44
2022-10-10T01:31:29.775Z,22.78
2022-10-10T01:34:22.366Z,22.66
2022-10-10T01:37:01.868Z,22.67
2022-10-10T01:39:43.136Z,22.50
2022-10-10T01:42:52.119Z,22.46
2022-10-10T01:45:21.398Z,22.59
2022-10-10T01:47:51.597Z,22.70
2022-10-10T01:50:24.825Z,22.67
2022-10-10T01:53:23.875Z,22.47
2022-10-10T01:55:59.143Z,22.46
2022-10-10T01:58:51.936Z,22.43
2022-10-10T02:01:34.756Z,22.53
2022-10-10T02:04:39.367Z,22.53
2022-10-10T02:07:11.557Z,22.55
2022-10-10T02:09:43.209Z,22.39
2022-10-10T02:12:14.239Z,22.61
2022-10-10T02:14:46.777Z,22.54
2022-10-10T02:17:16.351Z,22.30
2022-10-10T02:19:55.404Z,22.25
2022-10-10T02:22:25.029Z,22.30
2022-10-10T02:24:54.876Z,22.41
2022-10-10T02:27:40.316Z,22.33
2022-10-10T02:30:09.485Z,22.23
2022-10-10T02:32:54.647Z,22.33
2022-10-10T02:35:28.697Z,22.42
2022-10-10T02:38:00.415Z,22.42
2022-10-10T02:40:32.458Z,22.19
2022-10-10T02:43:03.775Z,22.28
2022-10-10T02:45:33.767Z,22.23
2022-10-10T02:48:03.329Z,22.40
2022-10-10T02:50:32.157Z,22.22
2022-10-10T02:53:00.517Z,22.33
2022-10-10T02:55:28.767Z,22.22
2022-10-10T02:57:57.536Z,22.26
2022-10-10T03:00:25.701Z,22.15
2022-10-10T03:02:53.816Z,22.26
2022-10-10T03:05:22.177Z,22.07
2022-10-10T03:07:50.756Z,22.19
2022-10-10T03:10:18.805Z,22.29
2022-10-10T03:12:46.665Z,22.28
2022-10-10T03:15:14.835Z,22.28
2022-10-10T03:17:42.835Z,22.21
2022-10-10T03:20:11.775Z,22.23
2022-10-10T03:22:39.956Z,22.02
2022-10-10T03:25:08.155Z,22.24
2022-10-10T03:27:36.326Z,22.22
2022-10-10T03:30:05.629Z,22.16
2022-10-10T03:32:33.716Z,22.10
2022-10-10T03:35:01.515Z,22.31
2022-10-10T03:37:29.566Z,22.29
2022-10-10T03:39:57.465Z,22.31
2022-10-10T03:42:25.581Z,22.29
2022-10-10T03:44:53.595Z,22.12
2022-10-10T03:47:21.803Z,22.25
2022-10-10T03:49:49.615Z,22.33
2022-10-10T03:52:17.697Z,22.25
2022-10-10T03:54:45.498Z,22.19
2022-10-10T03:57:13.765Z,22.06
2022-10-10T03:59:41.506Z,22.24
2022-10-10T04:02:09.626Z,22.05
2022-10-10T04:04:37.371Z,22.20
2022-10-10T04:07:05.525Z,22.15
2022-10-10T04:09:33.309Z,22.19
2022-10-10T04:12:02.216Z,22.23
2022-10-10T04:14:30.196Z,22.41
2022-10-10T04:17:02.293Z,22.13
2022-10-10T04:19:31.166Z,22.24
2022-10-10T04:21:59.147Z,22.18
2022-10-10T04:24:27.035Z,22.13
2022-10-10T04:26:55.138Z,22.15
2022-10-10T04:29:23.065Z,22.15
2022-10-10T04:31:51.156Z,21.67
2022-10-10T04:34:20.025Z,21.65
2022-10-10T04:36:48.085Z,21.52
2022-10-10T04:39:15.956Z,21.33
2022-10-10T04:41:43.999Z,21.59
2022-10-10T04:44:11.806Z,21.60
2022-10-10T04:46:40.025Z,21.82
2022-10-10T04:49:08.145Z,21.85
2022-10-10T04:51:36.318Z,21.88
2022-10-10T04:54:04.886Z,21.91
2022-10-10T04:56:33.148Z,22.11
2022-10-10T04:59:00.986Z,22.14
2022-10-10T05:01:29.200Z,22.04
2022-10-10T05:03:57.264Z,22.02
2022-10-10T05:06:25.476Z,21.85
2022-10-10T05:08:53.326Z,21.95
2022-10-10T05:11:21.477Z,21.90
2022-10-10T05:13:50.906Z,22.01
2022-10-10T05:16:19.016Z,22.07
2022-10-10T05:18:46.907Z,22.22
2022-10-10T05:21:14.976Z,22.20
2022-10-10T05:23:42.936Z,22.16
2022-10-10T05:26:11.225Z,22.17
2022-10-10T05:28:39.370Z,22.07
2022-10-10T05:31:08.215Z,22.15
2022-10-10T05:33:35.975Z,22.19
2022-10-10T05:36:11.146Z,22.21
2022-10-10T05:38:40.916Z,22.05
2022-10-10T05:41:09.846Z,21.99
2022-10-10T05:43:37.771Z,21.73
2022-10-10T05:46:06.390Z,21.44
2022-10-10T05:48:34.284Z,21.49
2022-10-10T05:51:02.452Z,21.64
2022-10-10T05:53:31.000Z,21.60
2022-10-10T05:56:02.559Z,21.23
2022-10-10T05:58:30.971Z,20.81
2022-10-10T06:01:06.400Z,20.72
2022-10-10T06:03:34.769Z,21.13
2022-10-10T06:06:04.491Z,21.23
2022-10-10T06:08:32.641Z,21.44
2022-10-10T06:11:08.259Z,21.55
2022-10-10T06:13:37.469Z,21.74
2022-10-10T06:16:05.634Z,21.52
2022-10-10T06:18:33.503Z,21.74
2022-10-10T06:21:07.416Z,21.70
2022-10-10T06:23:35.242Z,21.72
2022-10-10T06:26:03.383Z,21.86
2022-10-10T06:28:31.530Z,21.65
2022-10-10T06:31:01.980Z,21.63
2022-10-10T06:33:30.634Z,21.40
2022-10-10T06:35:59.139Z,21.31
2022-10-10T06:38:27.844Z,21.26
2022-10-10T06:41:00.249Z,21.19
2022-10-10T06:43:29.035Z,21.27
2022-10-10T06:45:57.401Z,21.56
2022-10-10T06:48:25.335Z,21.65
2022-10-10T06:51:05.474Z,21.66
2022-10-10T06:53:34.757Z,21.68
2022-10-10T06:56:03.679Z,21.95
2022-10-10T06:58:33.110Z,22.18
2022-10-10T07:01:04.698Z,22.00
2022-10-10T07:03:32.708Z,22.00
2022-10-10T07:06:02.512Z,21.76
2022-10-10T07:08:30.986Z,21.83
2022-10-10T07:10:59.157Z,21.92
2022-10-10T07:13:27.060Z,21.94
2022-10-10T07:15:55.225Z,22.04
2022-10-10T07:18:23.859Z,22.21
2022-10-10T07:20:55.963Z,22.19
2022-10-10T07:23:24.258Z,22.37
2022-10-10T07:25:53.359Z,22.29
2022-10-10T07:28:21.169Z,22.48
2022-10-10T07:30:49.352Z,22.40
2022-10-10T07:33:17.749Z,22.38
2022-10-10T07:35:54.327Z,22.24
2022-10-10T07:38:22.160Z,22.29
2022-10-10T07:40:50.431Z,22.44
2022-10-10T07:43:18.328Z,22.24
2022-10-10T07:45:46.428Z,22.48
2022-10-10T07:48:14.418Z,22.30
2022-10-10T07:50:44.206Z,22.31
2022-10-10T07:53:12.447Z,22.39
2022-10-10T07:55:44.767Z,22.39
2022-10-10T07:58:13.157Z,22.41
2022-10-10T08:00:42.302Z,22.63
2022-10-10T08:03:12.104Z,22.94
2022-10-10T08:05:42.928Z,22.82
2022-10-10T08:08:11.818Z,22.81
2022-10-10T08:10:44.997Z,22.88
2022-10-10T08:13:13.082Z,23.10
2022-10-10T08:15:41.791Z,23.01
2022-10-10T08:18:09.687Z,23.22
2022-10-10T08:20:37.791Z,23.14
2022-10-10T08:23:05.828Z,22.91
2022-10-10T08:25:33.895Z,23.20
2022-10-10T08:28:02.327Z,23.28
2022-10-10T08:30:30.430Z,23.06
2022-10-10T08:32:58.426Z,23.18
2022-10-10T08:35:26.477Z,23.17
2022-10-10T08:37:55.126Z,23.25
2022-10-10T08:40:24.189Z,23.23
2022-10-10T08:42:55.134Z,23.31
2022-10-10T08:45:27.547Z,23.14
2022-10-10T08:48:03.328Z,23.39
2022-10-10T08:50:37.749Z,23.25
2022-10-10T08:53:19.237Z,23.22
2022-10-10T08:55:48.186Z,23.47
2022-10-10T08:58:21.248Z,23.50
2022-10-10T09:00:55.283Z,23.46
2022-10-10T09:03:34.447Z,23.48
2022-10-10T09:06:32.807Z,23.46
2022-10-10T09:09:22.111Z,23.74
2022-10-10T09:12:17.967Z,24.09
2022-10-10T09:15:02.070Z,24.04
2022-10-10T09:17:56.870Z,24.16
2022-10-10T09:20:27.738Z,24.07
2022-10-10T09:22:59.768Z,24.40
2022-10-10T09:25:45.667Z,24.23
2022-10-10T09:28:39.222Z,24.48
2022-10-10T09:31:38.378Z,24.57
2022-10-10T09:34:14.878Z,24.90
2022-10-10T09:36:44.928Z,24.85
2022-10-10T09:39:55.768Z,25.01
2022-10-10T09:42:33.987Z,24.92
2022-10-10T09:45:02.686Z,24.43
2022-10-10T09:47:30.585Z,24.52
2022-10-10T09:49:59.420Z,24.30
2022-10-10T09:52:30.968Z,24.87
2022-10-10T09:55:06.095Z,24.97
2022-10-10T09:57:41.394Z,25.31
2022-10-10T10:00:34.923Z,25.34
2022-10-10T10:03:18.029Z,25.41
2022-10-10T10:06:00.937Z,25.37
2022-10-10T10:08:35.998Z,25.24
2022-10-10T10:11:05.858Z,25.60
2022-10-10T10:13:37.265Z,25.90
2022-10-10T10:16:09.578Z,25.63
2022-10-10T10:18:46.736Z,26.32
2022-10-10T10:21:23.867Z,26.25
2022-10-10T10:24:02.190Z,26.45
2022-10-10T10:26:44.422Z,26.76
2022-10-10T10:29:46.275Z,27.37
2022-10-10T10:32:38.957Z,27.74
2022-10-10T10:35:44.540Z,27.91
2022-10-10T10:38:42.888Z,27.89
2022-10-10T10:41:13.648Z,28.20
2022-10-10T10:43:57.942Z,28.86
2022-10-10T10:46:52.378Z,29.35
2022-10-10T10:49:36.342Z,28.73
2022-10-10T10:52:07.208Z,29.01
2022-10-10T10:54:57.258Z,29.59
2022-10-10T10:58:10.339Z,30.30
2022-10-10T11:01:22.521Z,30.39
2022-10-10T11:05:15.757Z,30.83
2022-10-10T11:07:17.405Z,30.93
2022-10-10T11:10:08.970Z,30.92
2022-10-10T11:12:57.969Z,30.72
2022-10-10T11:16:05.455Z,30.54
2022-10-10T11:18:33.119Z,30.96
2022-10-10T11:21:14.750Z,31.13
2022-10-10T11:23:56.630Z,31.09
2022-10-10T11:26:32.359Z,30.86
2022-10-10T11:29:06.229Z,30.87
2022-10-10T11:31:43.403Z,29.68
2022-10-10T11:34:34.223Z,31.18
2022-10-10T11:37:08.813Z,30.56
2022-10-10T11:39:51.383Z,31.17
2022-10-10T11:42:21.573Z,31.74
2022-10-10T11:44:59.087Z,31.29
2022-10-10T11:47:35.690Z,31.60
2022-10-10T11:50:18.670Z,31.92
2022-10-10T11:52:56.665Z,30.74
2022-10-10T11:55:39.204Z,31.35
2022-10-10T11:58:07.236Z,30.02
2022-10-10T12:00:43.898Z,30.02
2022-10-10T12:03:12.135Z,31.44
2022-10-10T12:05:48.846Z,31.70
2022-10-10T12:08:26.572Z,32.08
2022-10-10T12:11:22.313Z,32.14
2022-10-10T12:13:56.824Z,31.87
2022-10-10T12:16:36.325Z,32.41
2022-10-10T12:19:16.470Z,31.24
2022-10-10T12:22:06.063Z,31.46
2022-10-10T12:25:15.452Z,31.48
2022-10-10T12:27:48.309Z,31.37
2022-10-10T12:30:20.906Z,32.59
2022-10-10T12:32:50.605Z,32.43
2022-10-10T12:35:36.816Z,32.30
2022-10-10T12:38:05.684Z,32.68
2022-10-10T12:40:35.551Z,32.83
2022-10-10T12:43:25.456Z,32.98
2022-10-10T12:45:53.534Z,31.18
2022-10-10T12:48:23.146Z,30.60
2022-10-10T12:51:22.256Z,31.56
2022-10-10T12:53:55.795Z,30.39
2022-10-10T12:56:37.035Z,30.21
2022-10-10T12:59:14.431Z,32.40
2022-10-10T13:01:46.674Z,32.35
2022-10-10T13:04:19.544Z,32.23
2022-10-10T13:06:52.996Z,31.34
2022-10-10T13:09:32.389Z,30.99
2022-10-10T13:12:07.456Z,32.44
2022-10-10T13:14:44.177Z,30.38
2022-10-10T13:17:29.304Z,31.51
2022-10-10T13:20:01.951Z,30.36
2022-10-10T13:22:32.906Z,29.60
2022-10-10T13:25:01.833Z,29.02
2022-10-10T13:27:33.890Z,28.28
2022-10-10T13:30:02.636Z,29.25
2022-10-10T13:32:36.157Z,29.23
2022-10-10T13:35:17.486Z,29.02
2022-10-10T13:37:52.855Z,29.95
2022-10-10T13:40:21.974Z,29.73
2022-10-10T13:42:51.183Z,29.24
2022-10-10T13:45:30.372Z,28.40
2022-10-10T13:48:02.643Z,28.86
2022-10-10T13:50:34.274Z,29.39
2022-10-10T13:53:27.074Z,30.57
2022-10-10T13:56:12.579Z,29.71
2022-10-10T13:59:05.363Z,29.66
2022-10-10T14:01:35.704Z,29.85
2022-10-10T14:04:50.346Z,30.03
2022-10-10T14:07:28.131Z,30.31
2022-10-10T14:10:01.735Z,30.36
2022-10-10T14:12:41.827Z,29.76
2022-10-10T14:15:35.417Z,30.44
2022-10-10T14:18:23.168Z,30.20
2022-10-10T14:20:53.666Z,29.89
2022-10-10T14:23:22.629Z,29.88
2022-10-10T14:25:51.097Z,29.75
2022-10-10T14:28:25.140Z,30.24
2022-10-10T14:30:53.469Z,31.08
2022-10-10T14:33:22.169Z,30.52
2022-10-10T14:35:52.540Z,30.92
2022-10-10T14:38:20.841Z,31.62
2022-10-10T14:40:50.937Z,32.02
2022-10-10T14:43:20.838Z,32.54
2022-10-10T14:45:54.358Z,32.82
2022-10-10T14:48:22.752Z,33.35
2022-10-10T14:50:51.534Z,33.00
2022-10-10T14:53:19.590Z,32.71
2022-10-10T14:55:49.035Z,32.04
2022-10-10T14:58:22.488Z,32.64
2022-10-10T15:00:52.718Z,33.79
2022-10-10T15:03:21.664Z,33.00
2022-10-10T15:05:50.980Z,33.85
2022-10-10T15:08:19.598Z,33.98
2022-10-10T15:10:48.318Z,33.77
2022-10-10T15:13:17.208Z,33.73
2022-10-10T15:15:48.057Z,33.20
2022-10-10T15:18:39.650Z,32.58
2022-10-10T15:21:11.872Z,32.83
2022-10-10T15:23:39.827Z,32.56
2022-10-10T15:26:08.509Z,32.13
2022-10-10T15:28:37.021Z,30.72
2022-10-10T15:31:05.910Z,29.74
2022-10-10T15:33:34.319Z,29.44
2022-10-10T15:36:09.946Z,28.99
2022-10-10T15:38:39.368Z,29.36
2022-10-10T15:41:09.860Z,28.50
2022-10-10T15:43:54.734Z,29.17
2022-10-10T15:46:25.278Z,29.78
2022-10-10T15:49:00.819Z,29.29
2022-10-10T15:51:29.685Z,28.64
2022-10-10T15:53:59.508Z,28.45
2022-10-10T15:56:29.868Z,28.36
2022-10-10T15:59:00.480Z,28.47
2022-10-10T16:01:29.987Z,28.08
2022-10-10T16:03:58.998Z,27.90
2022-10-10T16:06:27.087Z,28.16
2022-10-10T16:09:10.109Z,28.03
2022-10-10T16:11:43.964Z,28.06
2022-10-10T16:14:12.040Z,27.72
2022-10-10T16:16:40.265Z,27.72
2022-10-10T16:19:08.786Z,27.51
2022-10-10T16:21:36.875Z,27.68
2022-10-10T16:24:05.165Z,27.92
2022-10-10T16:26:35.597Z,27.47
2022-10-10T16:29:06.842Z,27.70
2022-10-10T16:31:37.066Z,27.27
2022-10-10T16:34:06.944Z,27.12
2022-10-10T16:36:37.612Z,27.03
2022-10-10T16:39:05.905Z,26.91
2022-10-10T16:41:47.549Z,26.99
2022-10-10T16:44:17.636Z,26.90
2022-10-10T16:46:46.054Z,26.75
2022-10-10T16:49:17.211Z,26.79
2022-10-10T16:51:45.385Z,26.61
2022-10-10T16:54:13.351Z,26.55
2022-10-10T16:56:42.157Z,26.46
2022-10-10T16:59:10.094Z,26.56
2022-10-10T17:01:38.483Z,26.53
2022-10-10T17:04:06.664Z,26.52
2022-10-10T17:06:38.235Z,26.48
2022-10-10T17:09:08.182Z,26.29
2022-10-10T17:11:36.505Z,26.32
2022-10-10T17:14:04.569Z,26.27
2022-10-10T17:19:21.116Z,26.18
2022-10-10T17:21:49.655Z,25.86
2022-10-10T17:24:17.946Z,26.00
2022-10-10T17:26:46.083Z,25.69
2022-10-10T17:29:14.584Z,25.75
2022-10-10T17:31:43.325Z,25.77
2022-10-10T17:34:11.587Z,25.79
2022-10-10T17:36:39.978Z,25.93
2022-10-10T17:39:09.434Z,25.69
2022-10-10T17:41:37.877Z,25.63
2022-10-10T17:44:11.047Z,25.60
2022-10-10T17:46:39.563Z,25.49
2022-10-10T17:49:11.158Z,25.58
2022-10-10T17:51:40.926Z,25.29
2022-10-10T17:54:10.379Z,25.27
2022-10-10T17:56:39.467Z,25.17
2022-10-10T17:59:08.172Z,25.20
2022-10-10T18:01:37.641Z,25.08
2022-10-10T18:04:06.882Z,25.53
2022-10-10T18:06:38.207Z,25.15
2022-10-10T18:09:07.614Z,25.25
2022-10-10T18:11:35.819Z,25.19
2022-10-10T18:14:04.486Z,24.99
2022-10-10T18:16:34.549Z,25.03
2022-10-10T18:19:08.147Z,25.17
2022-10-10T18:21:36.618Z,24.97
2022-10-10T18:24:04.985Z,24.92
2022-10-10T18:26:35.314Z,24.92
2022-10-10T18:29:04.178Z,24.89
2022-10-10T18:31:34.843Z,24.83
2022-10-10T18:34:04.451Z,24.58
2022-10-10T18:36:37.255Z,24.63
2022-10-10T18:39:09.756Z,24.53
2022-10-10T18:41:38.112Z,24.71
2022-10-10T18:44:09.013Z,24.63
2022-10-10T18:46:37.396Z,24.62
2022-10-10T18:49:09.546Z,24.59
2022-10-10T18:51:40.208Z,24.74
2022-10-10T18:54:09.415Z,24.53
2022-10-10T18:56:39.154Z,24.45
2022-10-10T18:59:26.298Z,24.52
2022-10-10T19:01:55.547Z,24.48
2022-10-10T19:04:25.019Z,24.45
2022-10-10T19:06:57.326Z,24.38
2022-10-10T19:09:27.206Z,24.38
2022-10-10T19:11:55.536Z,24.25
2022-10-10T19:14:23.765Z,24.14
2022-10-10T19:16:52.099Z,24.25
2022-10-10T19:19:20.991Z,23.88
2022-10-10T19:21:49.562Z,23.78
2022-10-10T19:24:21.499Z,23.84
2022-10-10T19:27:03.835Z,23.88
2022-10-10T19:29:32.709Z,23.84
2022-10-10T19:32:00.763Z,23.91
2022-10-10T19:34:29.004Z,23.81
2022-10-10T19:36:58.464Z,23.62
2022-10-10T19:39:26.388Z,23.62
2022-10-10T19:41:54.299Z,23.75
2022-10-10T19:44:22.497Z,23.59
2022-10-10T19:46:50.423Z,23.55
2022-10-10T19:49:18.418Z,23.60
2022-10-10T19:51:46.657Z,23.01
2022-10-10T19:54:14.704Z,22.89
2022-10-10T19:56:42.694Z,23.14
2022-10-10T19:59:10.958Z,22.98
2022-10-10T20:01:38.933Z,22.88
2022-10-10T20:04:07.096Z,22.80
2022-10-10T20:06:36.007Z,22.79
2022-10-10T20:09:09.705Z,22.89
2022-10-10T20:11:40.025Z,22.84
2022-10-10T20:14:08.722Z,22.69
2022-10-10T20:16:37.285Z,22.65
2022-10-10T20:19:05.583Z,22.77
2022-10-10T20:21:34.913Z,22.54
2022-10-10T20:24:09.670Z,22.83
2022-10-10T20:26:37.886Z,22.71
2022-10-10T20:29:07.278Z,22.37
2022-10-10T20:31:37.013Z,22.44
2022-10-10T20:34:07.223Z,22.53
2022-10-10T20:36:35.928Z,22.63
2022-10-10T20:39:09.731Z,22.59
2022-10-10T20:41:39.407Z,22.64
2022-10-10T20:44:09.313Z,22.49
2022-10-10T20:46:40.105Z,22.35
2022-10-10T20:49:20.577Z,22.47
2022-10-10T20:51:52.145Z,22.36
2022-10-10T20:54:22.674Z,22.27
2022-10-10T20:56:50.683Z,22.47
2022-10-10T20:59:19.693Z,22.62
2022-10-10T21:01:47.949Z,22.26
2022-10-10T21:04:16.344Z,22.41
2022-10-10T21:06:44.814Z,22.30
2022-10-10T21:09:15.476Z,22.17
2022-10-10T21:11:46.434Z,21.93
2022-10-10T21:14:18.303Z,21.99
2022-10-10T21:16:46.347Z,22.03
2022-10-10T21:19:14.586Z,21.98
2022-10-10T21:21:42.968Z,21.91
2022-10-10T21:24:12.247Z,21.79
2022-10-10T21:26:42.165Z,21.93
2022-10-10T21:29:10.405Z,22.15
2022-10-10T21:31:40.416Z,21.92
2022-10-10T21:34:13.635Z,21.75
2022-10-10T21:36:42.057Z,21.74
2022-10-10T21:39:11.875Z,21.89
2022-10-10T21:41:40.168Z,21.65
2022-10-10T21:44:08.527Z,21.60
2022-10-10T21:46:37.465Z,21.63
2022-10-10T21:49:11.672Z,21.39
2022-10-10T21:51:43.721Z,21.59
2022-10-10T21:54:12.549Z,21.71
2022-10-10T21:56:41.149Z,21.58
2022-10-10T21:59:09.103Z,21.64
2022-10-10T22:01:37.911Z,21.92
2022-10-10T22:04:06.885Z,21.65
2022-10-10T22:06:35.225Z,21.53
2022-10-10T22:09:04.271Z,21.45
2022-10-10T22:11:34.457Z,21.39
2022-10-10T22:14:03.449Z,21.25
2022-10-10T22:16:35.124Z,21.27
2022-10-10T22:19:04.496Z,21.35
2022-10-10T22:21:35.218Z,21.28
2022-10-10T22:24:06.655Z,21.63
2022-10-10T22:26:35.592Z,21.39
2022-10-10T22:29:04.884Z,21.58
2022-10-10T22:31:35.810Z,21.80
2022-10-10T22:34:07.476Z,21.55
2022-10-10T22:36:35.744Z,21.79
2022-10-10T22:39:05.028Z,21.49
2022-10-10T22:41:33.014Z,21.57
2022-10-10T22:44:01.027Z,21.20
2022-10-10T22:46:29.594Z,20.94
2022-10-10T22:48:57.907Z,21.05
2022-10-10T22:51:26.012Z,20.99
2022-10-10T22:53:54.478Z,20.99
2022-10-10T22:56:22.822Z,21.04
2022-10-10T22:58:51.803Z,20.77
2022-10-10T23:01:23.669Z,20.93
2022-10-10T23:04:00.757Z,20.82
2022-10-10T23:06:29.745Z,20.98
2022-10-10T23:08:58.346Z,20.77
2022-10-10T23:11:26.360Z,20.87
2022-10-10T23:13:54.533Z,20.90
2022-10-10T23:16:22.923Z,20.87
2022-10-10T23:18:51.064Z,20.64
2022-10-10T23:21:19.542Z,20.47
2022-10-10T23:23:47.546Z,20.62
2022-10-10T23:26:15.585Z,20.47
2022-10-10T23:28:47.029Z,20.30
2022-10-10T23:31:15.328Z,20.28
2022-10-10T23:33:44.676Z,20.38
2022-10-10T23:36:16.304Z,20.39
2022-10-10T23:38:44.462Z,20.38
2022-10-10T23:41:13.514Z,20.28
2022-10-10T23:43:41.886Z,20.35
2022-10-10T23:46:10.248Z,20.49
2022-10-10T23:48:38.814Z,20.27
2022-10-10T23:51:07.177Z,20.42
2022-10-10T23:53:35.895Z,20.21
2022-10-10T23:56:04.565Z,20.25
2022-10-10T23:58:32.959Z,20.35
